Time;durP1;ratioP1;P1;durP2;ratioP2;P2;SDS_P1;SDS_P2;PMS_P1;PMS_P2;Temp;Humidity;BMP_temperature;BMP_pressure;BME280_temperature;BME280_humidity;BME280_pressure;Samples;Min_cycle;Max_cycle;Signal;HPM_P1;HPM_P2
2023/10/01 00:00:20;;;;;;;13.90;8.10;;;16.20;90.40;;;;;;5072860;28;20017;-79
2023/10/01 00:02:48;;;;;;;15.63;8.68;;;16.20;90.60;;;;;;5072418;28;20623;-79
2023/10/01 00:05:14;;;;;;;14.10;8.63;;;16.20;90.40;;;;;;5055375;28;20088;-79
2023/10/01 00:07:41;;;;;;;20.23;9.50;;;16.10;90.90;;;;;;5055158;28;20040;-79
2023/10/01 00:10:13;;;;;;;15.73;9.20;;;16.10;90.50;;;;;;5055425;28;20029;-79
2023/10/01 00:12:44;;;;;;;15.33;8.80;;;16.10;90.50;;;;;;5072776;28;20055;-78
2023/10/01 00:15:12;;;;;;;14.13;8.23;;;16.10;90.70;;;;;;5055101;28;20033;-79
2023/10/01 00:17:39;;;;;;;15.48;8.13;;;16.00;90.70;;;;;;5056976;28;20048;-79
2023/10/01 00:20:22;;;;;;;16.13;8.52;;;16.00;90.80;;;;;;5076542;28;20385;-79
2023/10/01 00:22:50;;;;;;;17.60;8.57;;;16.00;90.70;;;;;;5076653;28;20036;-79
2023/10/01 00:25:17;;;;;;;14.50;8.55;;;16.00;90.60;;;;;;5042212;28;20048;-79
2023/10/01 00:27:43;;;;;;;17.05;8.82;;;16.00;90.70;;;;;;5076259;28;20025;-79
2023/10/01 00:30:10;;;;;;;13.95;8.30;;;16.00;90.70;;;;;;5058654;28;20028;-79
2023/10/01 00:32:36;;;;;;;16.17;8.93;;;16.00;90.60;;;;;;5042332;28;20029;-79
2023/10/01 00:35:06;;;;;;;15.40;8.70;;;16.00;90.60;;;;;;5041960;28;20092;-79
2023/10/01 00:37:33;;;;;;;15.02;8.77;;;15.90;90.80;;;;;;5042345;28;20170;-79
2023/10/01 00:39:59;;;;;;;12.73;8.35;;;15.80;90.90;;;;;;5058307;28;20080;-79
2023/10/01 00:42:33;;;;;;;16.17;9.00;;;15.80;91.00;;;;;;5058420;28;20017;-79
2023/10/01 00:44:59;;;;;;;14.80;8.65;;;15.80;91.10;;;;;;5076063;28;20036;-79
2023/10/01 00:47:29;;;;;;;16.60;9.40;;;15.70;91.30;;;;;;5041806;28;20029;-79
2023/10/01 00:49:57;;;;;;;16.20;9.07;;;15.60;91.50;;;;;;5075914;28;20023;-78
2023/10/01 00:52:23;;;;;;;17.00;9.55;;;15.60;91.50;;;;;;5058232;28;20052;-79
2023/10/01 00:54:51;;;;;;;16.67;9.77;;;15.50;91.70;;;;;;5075863;28;20053;-79
2023/10/01 00:57:17;;;;;;;14.25;8.10;;;15.50;91.60;;;;;;5041764;28;20025;-79
2023/10/01 00:59:43;;;;;;;18.90;9.45;;;15.50;91.60;;;;;;5041608;28;20025;-79
2023/10/01 01:02:10;;;;;;;17.38;9.85;;;15.50;91.50;;;;;;5057977;28;20027;-79
2023/10/01 01:04:42;;;;;;;14.95;8.80;;;15.50;91.50;;;;;;5041417;28;20064;-79
2023/10/01 01:07:20;;;;;;;17.13;9.15;;;15.40;91.60;;;;;;5057976;28;20029;-79
2023/10/01 01:09:48;;;;;;;17.40;8.98;;;15.40;91.70;;;;;;5075579;28;20036;-79
2023/10/01 01:12:15;;;;;;;18.15;8.48;;;15.40;91.60;;;;;;5075661;28;20021;-79
2023/10/01 01:14:44;;;;;;;15.95;8.70;;;15.30;91.60;;;;;;5075436;28;20025;-79
2023/10/01 01:17:13;;;;;;;17.48;9.05;;;15.30;91.80;;;;;;5075285;28;20404;-79
2023/10/01 01:19:41;;;;;;;16.75;9.10;;;15.20;91.90;;;;;;5057640;28;20033;-79
2023/10/01 01:22:16;;;;;;;14.25;7.95;;;15.20;91.80;;;;;;5075351;28;20025;-79
2023/10/01 01:24:42;;;;;;;15.02;8.35;;;15.20;91.90;;;;;;5075314;28;20025;-79
2023/10/01 01:27:07;;;;;;;17.70;8.82;;;15.20;92.10;;;;;;5057590;28;20055;-79
2023/10/01 01:29:44;;;;;;;12.98;7.57;;;15.30;92.00;;;;;;5073942;28;20037;-78
2023/10/01 01:32:16;;;;;;;14.73;8.15;;;15.30;92.00;;;;;;5075311;28;20024;-79
2023/10/01 01:34:44;;;;;;;13.05;7.93;;;15.40;91.80;;;;;;5058342;28;20035;-79
2023/10/01 01:37:19;;;;;;;13.07;7.57;;;15.40;91.70;;;;;;5074965;28;20036;-79
2023/10/01 01:39:49;;;;;;;13.55;7.35;;;15.40;91.70;;;;;;5057486;28;20067;-79
2023/10/01 01:42:21;;;;;;;18.08;9.52;;;15.40;91.60;;;;;;5057292;28;20025;-79
2023/10/01 01:47:36;;;;;;;14.48;7.80;;;15.40;91.80;;;;;;5075133;28;20089;-79
2023/10/01 01:50:17;;;;;;;15.40;7.60;;;15.40;91.70;;;;;;5057090;28;20029;-79
2023/10/01 01:52:47;;;;;;;15.82;7.63;;;15.40;91.80;;;;;;5042511;28;20033;-79
2023/10/01 01:55:23;;;;;;;14.35;8.15;;;15.50;91.60;;;;;;5057414;28;20029;-79
2023/10/01 01:58:06;;;;;;;12.73;7.40;;;15.50;91.60;;;;;;5042075;28;20092;-79
2023/10/01 02:00:35;;;;;;;10.77;6.35;;;15.50;91.80;;;;;;5059683;28;20040;-79
2023/10/01 02:03:10;;;;;;;12.40;6.53;;;15.50;91.50;;;;;;5040583;28;20044;-79
2023/10/01 02:05:41;;;;;;;11.15;6.13;;;15.50;91.50;;;;;;5074399;28;20068;-79
2023/10/01 02:08:57;;;;;;;11.27;6.72;;;15.50;91.80;;;;;;5056870;28;20053;-79
2023/10/01 02:11:08;;;;;;;11.85;6.65;;;15.50;91.30;;;;;;5054372;28;20056;-78
2023/10/01 02:13:40;;;;;;;11.48;6.50;;;15.50;91.30;;;;;;5041094;28;20029;-78
2023/10/01 02:19:19;;;;;;;10.95;6.28;;;15.40;91.10;;;;;;5059952;28;20084;-79
2023/10/01 02:21:52;;;;;;;12.68;7.25;;;15.40;91.30;;;;;;5042724;28;20036;-79
2023/10/01 02:24:23;;;;;;;14.43;6.93;;;15.30;91.30;;;;;;5056628;28;20025;-79
2023/10/01 02:26:58;;;;;;;11.35;6.50;;;15.30;91.40;;;;;;5056499;28;20088;-79
2023/10/01 02:29:25;;;;;;;14.70;7.03;;;15.30;91.70;;;;;;5074062;28;20044;-79
2023/10/01 02:31:57;;;;;;;13.02;6.85;;;15.30;91.40;;;;;;5074001;28;20026;-79
2023/10/01 02:34:29;;;;;;;13.35;6.88;;;15.30;91.50;;;;;;5040007;28;20057;-78
2023/10/01 02:36:55;;;;;;;;;;;15.30;91.50;;;;;;5057766;28;20025;-78
2023/10/01 02:39:27;;;;;;;13.02;6.15;;;15.30;91.40;;;;;;5039398;28;19916;-78
2023/10/01 02:42:09;;;;;;;12.98;6.35;;;15.20;91.60;;;;;;5057136;28;20021;-78
2023/10/01 02:44:39;;;;;;;13.55;6.18;;;15.30;91.60;;;;;;5073856;28;20021;-79
2023/10/01 02:47:16;;;;;;;11.65;7.05;;;15.30;91.40;;;;;;5056403;28;20043;-79
2023/10/01 02:49:52;;;;;;;13.10;6.10;;;15.30;91.20;;;;;;5073868;28;20025;-79
2023/10/01 02:52:36;;;;;;;11.32;5.75;;;15.30;91.20;;;;;;5040961;28;20033;-78
2023/10/01 02:55:17;;;;;;;11.55;6.32;;;15.30;91.30;;;;;;5073542;28;20021;-78
2023/10/01 02:57:43;;;;;;;12.77;6.68;;;15.30;91.00;;;;;;5041059;28;20040;-78
2023/10/01 03:00:20;;;;;;;11.73;6.00;;;15.30;91.00;;;;;;5073512;28;20017;-78
2023/10/01 03:02:52;;;;;;;9.95;5.22;;;15.30;91.00;;;;;;5040939;28;20056;-78
2023/10/01 03:05:28;;;;;;;9.60;5.70;;;15.20;90.80;;;;;;5055576;28;20104;-79
2023/10/01 03:07:54;;;;;;;10.52;5.72;;;15.20;91.20;;;;;;5025591;28;20025;-79
2023/10/01 03:10:26;;;;;;;12.20;5.68;;;15.10;90.90;;;;;;5055990;28;20029;-78
2023/10/01 03:12:58;;;;;;;11.00;5.65;;;15.10;91.00;;;;;;5055785;28;20017;-78
2023/10/01 03:15:29;;;;;;;9.05;5.50;;;15.00;91.10;;;;;;5073185;28;20024;-79
2023/10/01 03:18:08;;;;;;;10.25;5.30;;;14.90;91.30;;;;;;5073223;28;20013;-78
2023/10/01 03:23:25;;;;;;;12.10;5.68;;;14.90;91.30;;;;;;5073359;28;20033;-78
2023/10/01 03:26:05;;;;;;;12.02;5.57;;;14.90;91.40;;;;;;5055532;28;20055;-78
2023/10/01 03:31:24;;;;;;;10.80;6.05;;;14.80;91.30;;;;;;5073305;28;20044;-78
2023/10/01 03:33:56;;;;;;;10.25;5.90;;;14.80;91.40;;;;;;5073009;28;20035;-78
2023/10/01 03:36:28;;;;;;;11.27;5.15;;;14.60;91.60;;;;;;5055441;28;20075;-78
2023/10/01 03:38:58;;;;;;;11.18;6.07;;;14.60;91.80;;;;;;5055495;28;20044;-78
2023/10/01 03:41:24;;;;;;;10.80;5.07;;;14.60;91.70;;;;;;5055416;28;20017;-79
2023/10/01 03:43:55;;;;;;;11.60;5.80;;;14.50;91.80;;;;;;5055520;28;20084;-78
2023/10/01 03:46:26;;;;;;;14.07;5.82;;;14.60;91.80;;;;;;5072983;28;20021;-78
2023/10/01 03:51:58;;;;;;;12.30;5.43;;;14.50;91.80;;;;;;5073519;28;20031;-78
2023/10/01 03:54:51;;;;;;;8.82;5.13;;;14.50;92.40;;;;;;5059316;28;20124;-78
2023/10/01 03:57:17;;;;;;;12.10;6.20;;;14.50;92.00;;;;;;5076708;28;20036;-78
2023/10/01 03:59:51;;;;;;;11.30;5.20;;;14.50;91.90;;;;;;5043625;28;20084;-78
2023/10/01 04:02:28;;;;;;;13.00;5.63;;;14.50;92.00;;;;;;5076886;28;20076;-79
2023/10/01 04:04:57;;;;;;;10.27;5.53;;;14.40;92.00;;;;;;5058992;28;20056;-79
2023/10/01 04:07:42;;;;;;;10.30;5.43;;;14.40;92.20;;;;;;5059091;28;20025;-79
2023/10/01 04:10:28;;;;;;;10.77;4.90;;;14.30;92.20;;;;;;5059086;28;20037;-78
2023/10/01 04:12:56;;;;;;;11.55;5.85;;;14.30;92.40;;;;;;5058977;28;20107;-78
2023/10/01 04:15:30;;;;;;;10.50;5.07;;;14.30;92.50;;;;;;5076621;28;20029;-78
2023/10/01 04:20:47;;;;;;;11.88;5.65;;;14.30;92.50;;;;;;5060979;28;20045;-79
2023/10/01 04:23:25;;;;;;;11.57;5.13;;;14.30;92.60;;;;;;5058855;28;20540;-79
2023/10/01 04:25:54;;;;;;;10.90;5.45;;;14.30;92.70;;;;;;5058799;28;20028;-79
2023/10/01 04:28:20;;;;;;;9.68;4.95;;;14.40;92.80;;;;;;5076370;28;20392;-79
2023/10/01 04:30:51;;;;;;;12.73;5.25;;;14.40;92.90;;;;;;5058840;28;20033;-78
2023/10/01 04:33:23;;;;;;;12.93;5.25;;;14.50;92.80;;;;;;5058589;28;20017;-78
2023/10/01 04:35:55;;;;;;;12.98;5.10;;;14.50;92.80;;;;;;5042356;28;20025;-78
2023/10/01 04:38:32;;;;;;;12.20;4.95;;;14.50;92.70;;;;;;5059483;28;20032;-78
2023/10/01 04:41:07;;;;;;;9.73;4.78;;;14.50;92.60;;;;;;5042980;28;20033;-78
2023/10/01 04:43:35;;;;;;;12.02;5.35;;;14.60;92.60;;;;;;5076298;28;20036;-78
2023/10/01 04:46:08;;;;;;;9.52;4.72;;;14.60;92.50;;;;;;5058805;28;20036;-78
2023/10/01 04:48:36;;;;;;;10.13;5.30;;;14.70;92.30;;;;;;5058433;28;20040;-78
2023/10/01 04:51:07;;;;;;;11.60;4.97;;;14.60;92.20;;;;;;5058745;28;20021;-78
2023/10/01 04:53:33;;;;;;;11.30;5.32;;;14.60;92.30;;;;;;5042461;28;20027;-78
2023/10/01 04:56:05;;;;;;;11.50;5.07;;;14.60;92.40;;;;;;5058078;28;20479;-78
2023/10/01 04:58:38;;;;;;;9.43;4.75;;;14.60;92.30;;;;;;5058251;28;20025;-78
2023/10/01 05:01:17;;;;;;;10.73;5.10;;;14.60;92.20;;;;;;5058878;28;20025;-78
2023/10/01 05:03:44;;;;;;;10.38;5.15;;;14.60;92.30;;;;;;5058690;28;20052;-79
2023/10/01 05:06:18;;;;;;;10.57;5.03;;;14.60;92.20;;;;;;5075715;28;20104;-78
2023/10/01 05:08:44;;;;;;;11.10;5.00;;;14.60;92.30;;;;;;5058005;28;20036;-78
2023/10/01 05:11:16;;;;;;;13.68;5.80;;;14.50;92.30;;;;;;5057988;28;20104;-78
2023/10/01 05:13:51;;;;;;;9.95;4.68;;;14.60;92.20;;;;;;5057856;28;20052;-79
2023/10/01 05:16:18;;;;;;;9.52;5.00;;;14.50;92.20;;;;;;5058697;28;20025;-79
2023/10/01 05:18:48;;;;;;;11.32;5.05;;;14.50;92.10;;;;;;5041601;28;20033;-79
2023/10/01 05:21:18;;;;;;;14.32;5.53;;;14.50;92.00;;;;;;5057950;28;20024;-79
2023/10/01 05:23:45;;;;;;;10.32;4.63;;;14.50;92.00;;;;;;5057822;28;20086;-78
2023/10/01 05:26:11;;;;;;;10.63;4.90;;;14.50;92.00;;;;;;5075361;28;20045;-78
2023/10/01 05:28:41;;;;;;;12.27;5.28;;;14.50;92.00;;;;;;5075328;28;20033;-78
2023/10/01 05:31:09;;;;;;;13.48;5.20;;;14.50;92.10;;;;;;5075172;28;20021;-79
2023/10/01 05:33:38;;;;;;;12.02;4.97;;;14.50;92.00;;;;;;5075175;28;20032;-79
2023/10/01 05:36:05;;;;;;;13.73;5.25;;;14.40;92.10;;;;;;5057609;28;20028;-79
2023/10/01 05:38:33;;;;;;;10.23;4.82;;;14.40;92.10;;;;;;5057571;28;20032;-79
2023/10/01 05:41:03;;;;;;;10.52;4.60;;;14.40;92.10;;;;;;5075021;28;20025;-79
2023/10/01 05:43:37;;;;;;;9.98;4.70;;;14.40;92.10;;;;;;5075157;28;20021;-79
2023/10/01 05:46:08;;;;;;;8.23;4.65;;;14.40;92.10;;;;;;5057377;28;20034;-79
2023/10/01 05:48:35;;;;;;;10.73;4.55;;;14.50;92.10;;;;;;5041477;28;20036;-79
2023/10/01 05:51:04;;;;;;;10.85;4.93;;;14.50;92.00;;;;;;5057224;28;20111;-79
2023/10/01 05:53:30;;;;;;;10.68;5.45;;;14.50;92.00;;;;;;5057266;28;20017;-79
2023/10/01 05:56:05;;;;;;;11.27;4.63;;;14.50;92.00;;;;;;5057206;28;20036;-78
2023/10/01 05:58:31;;;;;;;11.23;4.78;;;14.50;92.00;;;;;;5057264;28;20025;-78
2023/10/01 06:00:57;;;;;;;9.38;4.38;;;14.50;92.00;;;;;;5040605;28;20028;-78
2023/10/01 06:03:24;;;;;;;12.05;4.68;;;14.50;92.00;;;;;;5074407;28;20021;-78
2023/10/01 06:05:58;;;;;;;12.18;5.05;;;14.50;92.10;;;;;;5074583;28;20039;-78
2023/10/01 06:08:25;;;;;;;11.13;4.82;;;14.50;92.10;;;;;;5056870;28;20029;-79
2023/10/01 06:11:05;;;;;;;11.43;5.00;;;14.50;92.10;;;;;;5040245;28;20032;-79
2023/10/01 06:13:51;;;;;;;12.80;4.85;;;14.60;92.10;;;;;;5074441;28;20021;-78
2023/10/01 06:16:25;;;;;;;9.75;4.50;;;14.60;92.20;;;;;;5073752;28;20032;-79
2023/10/01 06:18:56;;;;;;;12.82;4.95;;;14.60;92.30;;;;;;5056724;28;20025;-79
2023/10/01 06:21:23;;;;;;;9.43;4.45;;;14.50;92.50;;;;;;5056655;28;20045;-79
2023/10/01 06:23:50;;;;;;;14.00;5.20;;;14.60;92.40;;;;;;5056527;28;20084;-79
2023/10/01 06:26:50;;;;;;;11.23;4.72;;;14.60;92.40;;;;;;5074158;28;20028;-79
2023/10/01 06:29:16;;;;;;;11.60;4.97;;;14.70;92.50;;;;;;5074160;28;20024;-79
2023/10/01 06:32:00;;;;;;;13.13;5.18;;;14.70;92.60;;;;;;5056371;28;20032;-79
2023/10/01 06:34:29;;;;;;;9.88;4.95;;;14.60;92.70;;;;;;5073939;28;20025;-79
2023/10/01 06:36:58;;;;;;;10.43;5.13;;;14.70;92.80;;;;;;5073856;28;20028;-79
2023/10/01 06:39:30;;;;;;;8.90;4.97;;;14.70;92.70;;;;;;5056288;28;20024;-79
2023/10/01 06:42:18;;;;;;;10.75;4.97;;;14.80;92.80;;;;;;5056381;28;20487;-79
2023/10/01 06:44:43;;;;;;;10.60;5.10;;;14.80;92.80;;;;;;5058969;28;20025;-79
2023/10/01 06:47:14;;;;;;;10.60;5.80;;;14.80;92.90;;;;;;5073727;28;20052;-79
2023/10/01 06:52:41;;;;;;;10.63;5.10;;;14.90;93.00;;;;;;5059048;28;20044;-79
2023/10/01 06:55:07;;;;;;;12.07;6.28;;;14.90;93.00;;;;;;5056090;28;20119;-79
2023/10/01 06:57:35;;;;;;;10.90;5.40;;;14.90;93.10;;;;;;5073531;28;20024;-79
2023/10/01 07:00:13;;;;;;;11.93;5.20;;;14.90;93.10;;;;;;5073496;28;20052;-79
2023/10/01 07:02:40;;;;;;;13.63;5.47;;;14.90;93.20;;;;;;5055854;28;20029;-78
2023/10/01 07:05:06;;;;;;;11.55;5.43;;;15.00;93.20;;;;;;5073314;28;20055;-79
2023/10/01 07:07:35;;;;;;;14.27;6.88;;;15.10;93.60;;;;;;5073408;28;20056;-79
2023/10/01 07:10:01;;;;;;;11.88;5.30;;;15.10;93.40;;;;;;5073384;28;20531;-79
2023/10/01 07:12:27;;;;;;;14.18;5.78;;;15.10;93.40;;;;;;5039209;28;20025;-79
2023/10/01 07:14:53;;;;;;;12.77;5.57;;;15.10;93.40;;;;;;5073308;28;20036;-78
2023/10/01 07:17:24;;;;;;;12.05;6.47;;;15.20;93.50;;;;;;5022748;28;20068;-79
2023/10/01 07:20:00;;;;;;;12.07;5.43;;;15.30;93.50;;;;;;5055685;28;20017;-79
2023/10/01 07:22:31;;;;;;;13.25;7.03;;;15.40;93.40;;;;;;5040526;28;20025;-79
2023/10/01 07:24:59;;;;;;;10.80;6.00;;;15.60;93.50;;;;;;5055646;28;20021;-79
2023/10/01 07:27:25;;;;;;;11.60;5.43;;;15.60;93.40;;;;;;5055904;28;20049;-79
2023/10/01 07:29:54;;;;;;;13.63;6.03;;;15.60;93.30;;;;;;5055464;28;20468;-79
2023/10/01 07:32:20;;;;;;;11.77;5.38;;;15.60;93.40;;;;;;5073138;28;20043;-79
2023/10/01 07:34:48;;;;;;;13.93;5.90;;;15.70;93.50;;;;;;5073039;28;20041;-77
2023/10/01 07:37:23;;;;;;;13.55;5.50;;;15.80;93.40;;;;;;5055287;28;20044;-80
2023/10/01 07:40:08;;;;;;;12.80;5.50;;;15.90;93.20;;;;;;5072952;28;20031;-78
2023/10/01 07:42:46;;;;;;;12.38;5.57;;;16.00;93.40;;;;;;5055380;28;20041;-79
2023/10/01 07:45:16;;;;;;;16.85;6.13;;;16.00;93.40;;;;;;5073057;28;20017;-81
2023/10/01 07:47:42;;;;;;;12.73;5.15;;;16.10;93.30;;;;;;5055795;28;20049;-81
2023/10/01 07:50:12;;;;;;;11.75;5.13;;;16.30;93.20;;;;;;5038837;28;20043;-78
2023/10/01 07:52:40;;;;;;;11.85;5.38;;;16.40;93.10;;;;;;5055855;28;20514;-79
2023/10/01 07:58:22;;;;;;;13.30;5.07;;;16.50;93.00;;;;;;5058281;28;20052;-81
2023/10/01 08:00:43;;;;;;;11.50;5.00;;;16.50;92.90;;;;;;5072686;28;20029;-79
2023/10/01 08:05:48;;;;;;;11.43;5.70;;;16.70;93.00;;;;;;5056689;28;20045;-79
2023/10/01 08:08:15;;;;;;;10.98;4.95;;;16.80;92.80;;;;;;5072833;28;20025;-79
2023/10/01 08:10:40;;;;;;;10.82;4.90;;;16.80;92.80;;;;;;5072743;28;20022;-78
2023/10/01 08:13:23;;;;;;;12.00;5.40;;;16.90;92.80;;;;;;5055071;28;20097;-79
2023/10/01 08:15:58;;;;;;;11.63;4.75;;;17.00;92.60;;;;;;5057096;28;20361;-79
2023/10/01 08:18:39;;;;;;;17.50;5.60;;;17.00;92.40;;;;;;5039794;28;20021;-79
2023/10/01 08:21:15;;;;;;;10.77;4.50;;;17.10;92.20;;;;;;5055155;28;20056;-79
2023/10/01 08:23:54;;;;;;;12.13;4.78;;;17.20;92.10;;;;;;5072680;28;20076;-78
2023/10/01 08:29:06;;;;;;;11.80;4.57;;;17.40;92.40;;;;;;5057995;28;20048;-79
2023/10/01 08:34:23;;;;;;;13.05;5.05;;;17.50;91.60;;;;;;5072630;28;20025;-78
2023/10/01 08:36:56;;;;;;;11.80;4.85;;;17.60;92.20;;;;;;5054806;28;20029;-79
2023/10/01 08:39:47;;;;;;;12.70;4.90;;;17.60;91.80;;;;;;5057795;28;20029;-78
2023/10/01 08:42:13;;;;;;;13.18;4.75;;;17.70;91.50;;;;;;5045360;28;20088;-78
2023/10/01 08:44:49;;;;;;;11.60;4.80;;;17.80;91.20;;;;;;5058631;28;20055;-79
2023/10/01 08:49:53;;;;;;;11.57;4.93;;;17.90;91.60;;;;;;5076290;28;20044;-79
2023/10/01 08:52:25;;;;;;;12.23;5.35;;;18.10;91.80;;;;;;5041788;28;20029;-79
2023/10/01 08:54:53;;;;;;;14.30;5.32;;;18.20;91.80;;;;;;5058329;28;20021;-78
2023/10/01 08:57:36;;;;;;;13.65;5.43;;;18.20;91.30;;;;;;5042326;28;20044;-79
2023/10/01 09:00:20;;;;;;;11.13;5.25;;;18.20;91.00;;;;;;5043969;28;20029;-79
2023/10/01 09:02:55;;;;;;;13.10;5.40;;;18.20;90.80;;;;;;5075840;28;20018;-79
2023/10/01 09:05:25;;;;;;;12.32;5.90;;;18.20;91.20;;;;;;5057877;28;20048;-79
2023/10/01 09:10:52;;;;;;;10.90;5.45;;;18.50;91.00;;;;;;5075647;28;20097;-79
2023/10/01 09:13:21;;;;;;;12.07;5.00;;;18.50;90.80;;;;;;5075604;28;20047;-79
2023/10/01 09:15:53;;;;;;;14.45;5.13;;;18.60;90.80;;;;;;5058294;28;20033;-79
2023/10/01 09:18:22;;;;;;;14.23;5.25;;;18.60;90.70;;;;;;5042132;28;20025;-79
2023/10/01 09:23:56;;;;;;;12.95;5.18;;;18.80;90.80;;;;;;5075642;28;20036;-78
2023/10/01 09:26:40;;;;;;;11.95;5.40;;;19.00;91.00;;;;;;5057769;28;20052;-78
2023/10/01 09:29:20;;;;;;;13.32;5.35;;;19.10;90.20;;;;;;5057680;28;20025;-78
2023/10/01 09:31:56;;;;;;;14.63;5.50;;;19.10;90.00;;;;;;5075312;28;20025;-78
2023/10/01 09:34:36;;;;;;;14.10;5.85;;;19.10;90.90;;;;;;5075229;28;20029;-78
2023/10/01 09:37:01;;;;;;;13.57;4.65;;;19.30;91.10;;;;;;5042635;28;20484;-78
2023/10/01 09:39:41;;;;;;;13.13;5.75;;;19.30;90.50;;;;;;5057587;28;20025;-79
2023/10/01 09:42:28;;;;;;;13.00;5.38;;;19.30;90.60;;;;;;5075142;28;20017;-79
2023/10/01 09:45:09;;;;;;;14.70;5.85;;;19.20;91.00;;;;;;5075067;28;20017;-79
2023/10/01 09:47:35;;;;;;;14.50;5.85;;;19.30;90.90;;;;;;5075083;28;20029;-79
2023/10/01 09:50:03;;;;;;;14.00;6.18;;;19.40;90.80;;;;;;5056193;28;20021;-79
2023/10/01 09:52:48;;;;;;;15.40;6.18;;;19.40;90.70;;;;;;5075010;28;20415;-80
2023/10/01 09:55:26;;;;;;;14.10;5.38;;;19.50;91.00;;;;;;5059551;28;20025;-78
2023/10/01 09:57:54;;;;;;;10.90;5.28;;;19.50;90.70;;;;;;5074656;28;20514;-78
2023/10/01 10:00:21;;;;;;;14.38;5.53;;;19.60;91.00;;;;;;5074721;28;20013;-78
2023/10/01 10:02:51;;;;;;;11.68;5.90;;;19.70;90.90;;;;;;5056948;28;20009;-78
2023/10/01 10:05:25;;;;;;;15.82;6.10;;;19.80;90.70;;;;;;5074479;28;20110;-78
2023/10/01 10:07:54;;;;;;;13.50;4.90;;;19.90;91.00;;;;;;5074547;28;20037;-78
2023/10/01 10:10:29;;;;;;;11.43;5.13;;;20.00;90.50;;;;;;5056795;28;20029;-78
2023/10/01 10:13:15;;;;;;;11.85;5.40;;;20.10;90.70;;;;;;5056768;28;20030;-79
2023/10/01 10:16:01;;;;;;;13.82;5.10;;;20.30;90.60;;;;;;5059570;28;20025;-78
2023/10/01 10:18:32;;;;;;;13.23;5.25;;;20.40;89.80;;;;;;5039834;28;20033;-78
2023/10/01 10:20:59;;;;;;;12.20;4.87;;;20.40;89.60;;;;;;5057597;28;20025;-78
2023/10/01 10:23:31;;;;;;;13.65;5.97;;;20.40;89.00;;;;;;5074274;28;20321;-78
2023/10/01 10:26:34;;;;;;;15.43;6.00;;;20.40;89.50;;;;;;5040896;28;20055;-78
2023/10/01 10:29:10;;;;;;;15.57;5.75;;;20.50;88.70;;;;;;5056420;28;20452;-78
2023/10/01 10:31:37;;;;;;;14.77;5.90;;;20.50;89.60;;;;;;5056417;28;20032;-77
2023/10/01 10:34:47;;;;;;;13.20;5.50;;;20.60;89.70;;;;;;5039893;28;20025;-78
2023/10/01 10:37:06;;;;;;;14.85;5.55;;;20.60;88.60;;;;;;5069768;28;20060;-77
2023/10/01 10:39:50;;;;;;;14.35;5.75;;;20.70;89.40;;;;;;5056505;28;20023;-79
2023/10/01 10:42:28;;;;;;;15.13;5.82;;;20.80;89.00;;;;;;5056251;28;20052;-78
2023/10/01 10:45:19;;;;;;;13.18;5.22;;;20.90;89.10;;;;;;5056244;28;20400;-77
2023/10/01 10:48:03;;;;;;;15.35;6.15;;;21.10;89.00;;;;;;5073886;28;20028;-78
2023/10/01 10:50:50;;;;;;;13.38;5.75;;;21.30;89.00;;;;;;5073849;28;20067;-78
2023/10/01 10:53:24;;;;;;;11.73;4.75;;;21.40;89.10;;;;;;5073719;28;20048;-78
2023/10/01 10:56:04;;;;;;;13.73;5.28;;;21.60;87.60;;;;;;5073586;28;20051;-78
2023/10/01 10:58:39;;;;;;;12.07;5.30;;;21.50;84.40;;;;;;5057890;28;20021;-80
2023/10/01 11:01:23;;;;;;;12.73;5.38;;;21.50;86.60;;;;;;5039438;28;20033;-79
2023/10/01 11:03:57;;;;;;;11.77;5.05;;;21.60;87.20;;;;;;5055805;28;20056;-79
2023/10/01 11:06:39;;;;;;;12.85;5.20;;;21.70;86.90;;;;;;5055827;28;20029;-79
2023/10/01 11:09:25;;;;;;;14.38;5.45;;;21.80;87.00;;;;;;5058005;28;20404;-79
2023/10/01 11:12:07;;;;;;;13.90;6.15;;;22.00;85.30;;;;;;5073330;28;20060;-81
2023/10/01 11:14:37;;;;;;;12.63;4.90;;;22.00;85.50;;;;;;5073443;28;20454;-80
2023/10/01 11:17:06;;;;;;;12.07;4.72;;;22.00;85.50;;;;;;5073378;28;20054;-80
2023/10/01 11:19:36;;;;;;;13.65;4.97;;;22.10;86.00;;;;;;5073390;28;20120;-80
2023/10/01 11:22:04;;;;;;;12.00;4.68;;;22.10;83.40;;;;;;5055596;28;20023;-80
2023/10/01 11:24:31;;;;;;;12.52;4.35;;;22.10;83.00;;;;;;5055497;28;20372;-80
2023/10/01 11:27:25;;;;;;;10.60;4.28;;;22.20;83.80;;;;;;5073189;28;20021;-80
2023/10/01 11:29:59;;;;;;;11.75;4.25;;;22.30;85.70;;;;;;5055466;28;20025;-80
2023/10/01 11:35:36;;;;;;;14.57;4.30;;;22.50;82.30;;;;;;5073183;28;20048;-81
2023/10/01 11:38:10;;;;;;;10.88;4.13;;;22.40;83.40;;;;;;5072993;28;20021;-81
2023/10/01 11:43:35;;;;;;;11.15;4.32;;;22.40;82.80;;;;;;5058594;28;20096;-81
2023/10/01 11:46:23;;;;;;;10.73;4.15;;;22.40;82.40;;;;;;5055316;28;20017;-80
2023/10/01 11:49:02;;;;;;;15.55;4.90;;;22.50;83.40;;;;;;5055363;28;20044;-82
2023/10/01 11:51:54;;;;;;;11.70;4.80;;;22.60;82.30;;;;;;5073043;28;20032;-81
2023/10/01 11:54:20;;;;;;;8.85;4.00;;;22.60;82.20;;;;;;5073025;28;20044;-81
2023/10/01 11:57:06;;;;;;;11.30;4.70;;;22.60;81.70;;;;;;5055135;28;20447;-80
2023/10/01 11:59:34;;;;;;;12.35;4.88;;;22.70;82.00;;;;;;5072947;28;20025;-80
2023/10/01 12:02:18;;;;;;;11.25;4.40;;;22.80;82.40;;;;;;5055262;28;20017;-80
2023/10/01 12:04:44;;;;;;;11.23;4.70;;;22.90;83.70;;;;;;5072659;28;20088;-80
2023/10/01 12:07:19;;;;;;;11.57;4.30;;;23.00;81.40;;;;;;5072843;28;20059;-81
2023/10/01 12:09:50;;;;;;;10.85;4.35;;;23.10;81.70;;;;;;5055319;28;20029;-82
2023/10/01 12:12:38;;;;;;;11.02;4.25;;;23.10;80.70;;;;;;5073015;28;20033;-82
2023/10/01 12:17:49;;;;;;;11.25;4.50;;;23.10;82.00;;;;;;5076672;28;20092;-80
2023/10/01 12:20:29;;;;;;;10.13;4.20;;;23.10;79.40;;;;;;5058977;28;20033;-81
2023/10/01 12:23:10;;;;;;;9.07;3.67;;;23.20;80.00;;;;;;5061176;28;20044;-81
2023/10/01 12:28:29;;;;;;;11.73;4.75;;;23.40;80.70;;;;;;5076562;28;20029;-81
2023/10/01 12:30:57;;;;;;;11.55;5.05;;;23.40;80.20;;;;;;5059040;28;20029;-81
2023/10/01 12:33:40;;;;;;;11.63;4.22;;;23.40;79.20;;;;;;5076364;28;20021;-81
2023/10/01 12:39:16;;;;;;;11.25;4.50;;;23.60;79.00;;;;;;5076397;28;20044;-82
2023/10/01 12:44:36;;;;;;;10.48;4.10;;;23.70;78.50;;;;;;5076244;28;20055;-81
2023/10/01 12:47:14;;;;;;;13.43;5.00;;;23.60;78.60;;;;;;5076136;28;20028;-81
2023/10/01 12:49:42;;;;;;;11.32;4.70;;;23.60;78.50;;;;;;5076035;28;20033;-81
2023/10/01 12:52:09;;;;;;;13.07;5.47;;;23.70;79.00;;;;;;5042237;28;20025;-81
2023/10/01 12:54:39;;;;;;;11.05;4.47;;;23.80;78.80;;;;;;5058179;28;20101;-81
2023/10/01 12:57:25;;;;;;;10.43;4.35;;;23.80;77.20;;;;;;5075900;28;20029;-81
2023/10/01 13:02:45;;;;;;;11.18;4.22;;;23.90;78.70;;;;;;5075861;28;20044;-81
2023/10/01 13:05:19;;;;;;;12.73;4.75;;;24.00;77.80;;;;;;5059709;28;20109;-81
2023/10/01 13:07:50;;;;;;;11.38;4.32;;;24.10;79.00;;;;;;5075735;28;20031;-82
2023/10/01 13:10:17;;;;;;;11.82;4.53;;;24.30;78.20;;;;;;5058207;28;20025;-80
2023/10/01 13:12:55;;;;;;;10.90;4.88;;;24.40;77.60;;;;;;5075599;28;20029;-81
2023/10/01 13:15:33;;;;;;;13.00;4.97;;;24.40;76.70;;;;;;5043302;28;20032;-80
2023/10/01 13:18:00;;;;;;;10.80;4.70;;;24.30;75.90;;;;;;5059639;28;20029;-81
2023/10/01 13:20:28;;;;;;;11.27;4.70;;;24.30;75.10;;;;;;5041307;28;20021;-81
2023/10/01 13:23:07;;;;;;;11.15;4.85;;;24.30;77.80;;;;;;5075449;28;20048;-82
2023/10/01 13:25:36;;;;;;;9.95;4.10;;;24.30;77.50;;;;;;5075214;28;20043;-82
2023/10/01 13:28:02;;;;;;;13.25;4.75;;;24.30;75.40;;;;;;5058276;28;20032;-81
2023/10/01 13:30:52;;;;;;;12.13;5.28;;;24.30;74.50;;;;;;5075373;28;20046;-80
2023/10/01 13:33:19;;;;;;;11.32;5.32;;;24.40;74.50;;;;;;5075421;28;20464;-81
2023/10/01 13:35:57;;;;;;;15.38;5.45;;;24.40;73.10;;;;;;5075096;28;20025;-82
2023/10/01 13:38:37;;;;;;;12.70;5.32;;;24.40;73.20;;;;;;5075216;28;20022;-81
2023/10/01 14:11:04;;;;;;;11.55;5.40;;;25.50;71.70;;;;;;5059853;28;20067;-82
2023/10/01 14:13:29;;;;;;;14.32;5.75;;;26.00;72.00;;;;;;5040389;28;20036;-82
2023/10/01 14:16:11;;;;;;;15.38;5.60;;;26.50;70.30;;;;;;5074355;28;20084;-81
2023/10/01 14:18:53;;;;;;;18.38;6.55;;;27.00;69.00;;;;;;5056831;28;20029;-80
2023/10/01 14:21:27;;;;;;;15.05;6.35;;;27.00;66.80;;;;;;5074361;28;20395;-80
2023/10/01 14:23:57;;;;;;;11.43;5.30;;;27.20;67.10;;;;;;5074340;28;20021;-80
2023/10/01 14:26:33;;;;;;;13.75;5.50;;;27.20;66.10;;;;;;5056635;28;20096;-80
2023/10/01 14:28:59;;;;;;;14.18;5.63;;;27.50;66.20;;;;;;5056566;28;20028;-80
2023/10/01 14:34:09;;;;;;;13.02;5.80;;;27.40;65.10;;;;;;5059333;28;20040;-81
2023/10/01 14:36:39;;;;;;;11.88;5.47;;;27.20;65.30;;;;;;5056011;28;20029;-80
2023/10/01 14:39:06;;;;;;;15.23;5.88;;;26.90;65.80;;;;;;5056950;28;20016;-81